Time;durP1;ratioP1;P1;durP2;ratioP2;P2;SDS_P1;SDS_P2;PMS_P1;PMS_P2;Temp;Humidity;BMP_temperature;BMP_pressure;BME280_temperature;BME280_humidity;BME280_pressure;Samples;Min_cycle;Max_cycle;Signal;HPM_P1;HPM_P2
2021/09/25 00:01:11;;;;;;;10.50;9.47;;;17.10;99.90;;;;;;5073037;28;20157;-53
2021/09/25 00:03:36;;;;;;;10.70;9.20;;;17.20;99.90;;;;;;5070416;28;20183;-51
2021/09/25 00:06:02;;;;;;;9.13;8.30;;;17.20;99.90;;;;;;5067655;28;20528;-52
2021/09/25 00:08:28;;;;;;;9.13;8.17;;;17.20;99.90;;;;;;5072983;28;20265;-51
2021/09/25 00:10:53;;;;;;;9.63;8.73;;;17.20;99.90;;;;;;5071314;28;20283;-52
2021/09/25 00:13:19;;;;;;;9.63;8.73;;;17.20;99.90;;;;;;5072681;28;20199;-58
2021/09/25 00:15:45;;;;;;;9.07;8.13;;;17.20;99.90;;;;;;5072636;28;20158;-51
2021/09/25 00:18:10;;;;;;;9.77;8.77;;;17.20;99.90;;;;;;5072718;28;20162;-54
2021/09/25 00:20:37;;;;;;;10.03;8.47;;;17.10;99.90;;;;;;5072728;28;20184;-54
2021/09/25 00:23:04;;;;;;;9.03;8.23;;;17.20;99.90;;;;;;5072550;28;20174;-48
2021/09/25 00:25:30;;;;;;;10.17;8.43;;;17.20;99.90;;;;;;5072658;28;20869;-52
2021/09/25 00:27:55;;;;;;;9.80;8.90;;;17.20;99.90;;;;;;5072495;28;20498;-52
2021/09/25 00:30:21;;;;;;;9.43;8.53;;;17.20;99.90;;;;;;5072423;28;20166;-52
2021/09/25 00:32:47;;;;;;;8.97;8.17;;;17.10;99.90;;;;;;5072322;28;20210;-54
2021/09/25 00:35:13;;;;;;;9.63;8.63;;;17.10;99.90;;;;;;5072226;28;20176;-51
2021/09/25 00:37:39;;;;;;;9.63;8.70;;;17.10;99.90;;;;;;5072346;28;20637;-49
2021/09/25 00:40:06;;;;;;;8.90;8.00;;;17.10;99.90;;;;;;5072376;28;20420;-51
2021/09/25 00:42:32;;;;;;;9.27;8.37;;;17.20;99.90;;;;;;5069316;28;20472;-52
2021/09/25 00:44:58;;;;;;;9.70;8.90;;;17.20;99.90;;;;;;5052484;28;20481;-53
2021/09/25 00:47:23;;;;;;;9.00;8.10;;;17.20;99.90;;;;;;5052862;28;21005;-51
2021/09/25 00:49:49;;;;;;;9.20;8.30;;;17.20;99.90;;;;;;5052211;28;20176;-52
2021/09/25 00:52:15;;;;;;;9.10;8.30;;;17.20;99.90;;;;;;5052005;28;20180;-54
2021/09/25 00:54:40;;;;;;;9.77;8.13;;;17.20;99.90;;;;;;5052131;28;20220;-49
2021/09/25 00:57:07;;;;;;;8.17;7.37;;;17.20;99.90;;;;;;5060323;28;20183;-52
2021/09/25 00:59:33;;;;;;;9.10;8.30;;;17.20;99.90;;;;;;5071954;28;20608;-52
2021/09/25 01:01:59;;;;;;;8.27;7.47;;;17.20;99.90;;;;;;5071950;28;20408;-50
2021/09/25 01:04:25;;;;;;;8.60;7.80;;;17.20;99.90;;;;;;5065435;28;20425;-47
2021/09/25 01:06:50;;;;;;;8.53;7.73;;;17.20;99.90;;;;;;5082513;28;20185;-50
2021/09/25 01:09:16;;;;;;;8.57;7.73;;;17.20;99.90;;;;;;5078640;28;20192;-50
2021/09/25 01:11:42;;;;;;;8.50;7.70;;;17.20;99.90;;;;;;5071642;28;20185;-50
2021/09/25 01:14:07;;;;;;;9.00;8.20;;;17.20;99.90;;;;;;5071403;28;20227;-49
2021/09/25 01:16:33;;;;;;;7.83;7.17;;;17.10;99.90;;;;;;5072122;28;20429;-47
2021/09/25 01:18:59;;;;;;;8.40;7.60;;;17.20;99.90;;;;;;5088016;28;20217;-53
2021/09/25 01:21:25;;;;;;;9.20;8.30;;;17.10;99.90;;;;;;5089283;28;20193;-53
2021/09/25 01:23:50;;;;;;;8.97;8.03;;;17.20;99.90;;;;;;5057831;28;20188;-53
2021/09/25 01:26:16;;;;;;;9.10;8.30;;;17.10;99.90;;;;;;5063676;28;20196;-55
2021/09/25 01:28:43;;;;;;;8.67;7.90;;;17.10;99.90;;;;;;5070432;28;20196;-51
2021/09/25 01:31:12;;;;;;;8.43;7.63;;;17.10;99.90;;;;;;5071573;28;20429;-50
2021/09/25 01:33:42;;;;;;;8.90;8.10;;;17.10;99.90;;;;;;5071194;28;20838;-51
2021/09/25 01:36:07;;;;;;;8.93;8.03;;;17.10;99.90;;;;;;5071457;28;20751;-49
2021/09/25 01:38:33;;;;;;;8.90;8.10;;;17.20;99.90;;;;;;5071299;28;20404;-55
2021/09/25 01:40:59;;;;;;;10.47;9.37;;;17.20;99.90;;;;;;5071182;28;20417;-52
2021/09/25 01:43:25;;;;;;;9.93;8.97;;;17.20;99.90;;;;;;5065998;28;21052;-51
2021/09/25 01:45:51;;;;;;;10.17;9.17;;;17.20;99.90;;;;;;5071225;28;20470;-52
2021/09/25 01:48:18;;;;;;;9.70;8.80;;;17.20;99.90;;;;;;5071061;28;20438;-50
2021/09/25 01:50:45;;;;;;;9.50;8.60;;;17.20;99.90;;;;;;5070936;28;20470;-51
2021/09/25 01:53:11;;;;;;;9.80;9.00;;;17.20;99.90;;;;;;5071070;28;20953;-49
2021/09/25 01:55:37;;;;;;;8.47;7.67;;;17.20;99.90;;;;;;5070725;28;20537;-47
2021/09/25 01:58:02;;;;;;;7.80;7.03;;;17.20;99.90;;;;;;5070688;28;20188;-53
2021/09/25 02:00:28;;;;;;;8.60;7.80;;;17.20;99.90;;;;;;5070741;28;20164;-53
2021/09/25 02:02:55;;;;;;;8.70;7.90;;;17.20;99.90;;;;;;5070788;28;20174;-50
2021/09/25 02:05:22;;;;;;;8.57;7.87;;;17.20;99.90;;;;;;5056945;28;20269;-51
2021/09/25 02:07:48;;;;;;;7.77;6.97;;;17.20;99.90;;;;;;5050756;28;20876;-58
2021/09/25 02:10:15;;;;;;;7.13;6.53;;;17.20;99.90;;;;;;5067577;28;20899;-51
2021/09/25 02:12:42;;;;;;;7.00;6.30;;;17.40;99.90;;;;;;5058300;28;20463;-48
2021/09/25 02:15:08;;;;;;;8.33;7.40;;;17.30;99.90;;;;;;5052897;28;20815;-52
2021/09/25 02:17:35;;;;;;;7.97;7.27;;;17.30;99.90;;;;;;5068224;28;20426;-48
2021/09/25 02:20:01;;;;;;;7.23;6.53;;;17.30;99.90;;;;;;5084298;28;20428;-51
2021/09/25 02:22:27;;;;;;;7.90;7.10;;;17.30;99.90;;;;;;5090674;28;20557;-52
2021/09/25 02:24:53;;;;;;;7.60;7.00;;;17.30;99.90;;;;;;5058250;28;20422;-48
2021/09/25 02:27:18;;;;;;;7.83;7.03;;;17.30;99.90;;;;;;5050380;28;20786;-53
2021/09/25 02:29:44;;;;;;;8.43;7.00;;;17.30;99.90;;;;;;5050409;28;20166;-48
2021/09/25 02:32:10;;;;;;;6.70;6.13;;;17.30;99.90;;;;;;5050339;28;20183;-51
2021/09/25 02:34:36;;;;;;;6.73;6.23;;;17.30;99.90;;;;;;5049914;28;20201;-52
2021/09/25 02:37:03;;;;;;;6.87;6.30;;;17.20;99.90;;;;;;5050294;28;20772;-53
2021/09/25 02:39:29;;;;;;;6.97;6.37;;;17.20;99.90;;;;;;5050553;28;20415;-48
2021/09/25 02:41:55;;;;;;;6.07;5.53;;;17.30;99.90;;;;;;5050347;28;20399;-49
2021/09/25 02:44:20;;;;;;;6.30;5.80;;;17.30;99.90;;;;;;5067617;28;20469;-50
2021/09/25 02:46:47;;;;;;;5.83;5.33;;;17.30;99.90;;;;;;5069985;28;20183;-50
2021/09/25 02:49:14;;;;;;;6.77;6.17;;;17.40;99.90;;;;;;5070046;28;20322;-49
2021/09/25 02:51:40;;;;;;;5.70;5.20;;;17.60;99.90;;;;;;5069851;28;20428;-50
2021/09/25 02:54:05;;;;;;;6.20;5.60;;;17.70;99.90;;;;;;5069832;28;20488;-56
2021/09/25 02:56:31;;;;;;;5.87;5.27;;;17.70;99.90;;;;;;5069685;28;20190;-51
2021/09/25 02:58:56;;;;;;;5.50;5.00;;;17.70;99.90;;;;;;5069790;28;20164;-58
2021/09/25 03:01:22;;;;;;;5.87;5.37;;;17.70;99.90;;;;;;5069814;28;20185;-48
2021/09/25 03:03:48;;;;;;;7.70;5.73;;;17.80;99.90;;;;;;5069763;28;20292;-49
2021/09/25 03:06:13;;;;;;;5.70;5.20;;;17.80;99.90;;;;;;5069449;28;20726;-48
2021/09/25 03:08:39;;;;;;;8.13;5.77;;;17.80;99.90;;;;;;5069775;28;20234;-50
2021/09/25 03:11:04;;;;;;;6.40;5.80;;;17.90;99.90;;;;;;5069528;28;20218;-52
2021/09/25 03:13:30;;;;;;;6.50;5.70;;;17.90;99.90;;;;;;5069831;28;20718;-57
2021/09/25 03:15:55;;;;;;;5.70;5.20;;;18.00;99.90;;;;;;5064238;28;20211;-54
2021/09/25 03:18:21;;;;;;;5.90;5.30;;;17.90;99.90;;;;;;5071958;28;20186;-52
2021/09/25 03:20:46;;;;;;;5.70;5.20;;;17.90;99.90;;;;;;5073900;28;20639;-52
2021/09/25 03:23:12;;;;;;;5.43;4.93;;;18.00;99.90;;;;;;5089828;28;21031;-56
2021/09/25 03:25:37;;;;;;;6.10;5.60;;;18.00;99.90;;;;;;5089509;28;20276;-50
2021/09/25 03:28:03;;;;;;;5.60;4.97;;;18.00;99.90;;;;;;5065131;28;20706;-50
2021/09/25 03:30:29;;;;;;;5.50;5.00;;;18.00;99.90;;;;;;5049063;28;20203;-49
2021/09/25 03:32:54;;;;;;;7.67;6.43;;;18.00;99.90;;;;;;5049515;28;20651;-53
2021/09/25 03:35:20;;;;;;;6.60;6.00;;;18.10;99.90;;;;;;5049140;28;20215;-52
2021/09/25 03:37:45;;;;;;;6.10;5.50;;;18.00;99.90;;;;;;5049503;28;20179;-48
2021/09/25 03:40:12;;;;;;;6.27;5.70;;;18.00;99.90;;;;;;5049109;28;20193;-53
2021/09/25 03:42:37;;;;;;;5.93;5.33;;;18.00;99.90;;;;;;5052645;28;20218;-50
2021/09/25 03:45:05;;;;;;;6.37;4.63;;;18.00;99.90;;;;;;5069294;28;20458;-52
2021/09/25 03:47:31;;;;;;;6.07;5.57;;;17.80;99.90;;;;;;5069383;28;20211;-51
2021/09/25 03:49:56;;;;;;;5.30;4.90;;;17.80;99.90;;;;;;5069328;28;20448;-51
2021/09/25 03:52:22;;;;;;;6.10;5.50;;;17.70;99.90;;;;;;5069130;28;20195;-53
2021/09/25 03:54:47;;;;;;;5.70;5.20;;;17.70;99.90;;;;;;5069188;28;20168;-57
2021/09/25 03:57:13;;;;;;;5.83;5.33;;;17.80;99.90;;;;;;5069105;28;20569;-53
2021/09/25 03:59:38;;;;;;;5.37;4.90;;;17.80;99.90;;;;;;5069420;28;20179;-51
2021/09/25 04:02:04;;;;;;;5.57;5.00;;;17.80;99.90;;;;;;5068946;28;20179;-50
2021/09/25 04:04:30;;;;;;;6.97;6.27;;;17.80;99.90;;;;;;5069221;28;20649;-47
2021/09/25 04:06:55;;;;;;;5.20;4.80;;;17.70;99.90;;;;;;5068869;28;20176;-50
2021/09/25 04:09:21;;;;;;;5.50;5.10;;;17.80;99.90;;;;;;5069046;28;20291;-52
2021/09/25 04:11:48;;;;;;;5.60;5.10;;;17.80;99.90;;;;;;5068991;28;20170;-51
2021/09/25 04:14:19;;;;;;;5.60;5.10;;;17.80;99.90;;;;;;5068942;28;20230;-48
2021/09/25 04:16:47;;;;;;;5.77;5.17;;;17.80;99.90;;;;;;5063224;28;20424;-47
2021/09/25 04:19:13;;;;;;;5.27;4.80;;;17.80;99.90;;;;;;5071885;28;20465;-51
2021/09/25 04:21:38;;;;;;;5.70;5.30;;;17.80;99.90;;;;;;5054720;28;20417;-51
2021/09/25 04:24:05;;;;;;;5.03;4.63;;;17.80;99.90;;;;;;5048720;28;20411;-50
2021/09/25 04:26:30;;;;;;;5.43;4.83;;;17.90;99.90;;;;;;5048951;28;20174;-56
2021/09/25 04:28:59;;;;;;;6.30;5.13;;;17.90;99.90;;;;;;5048846;28;20417;-53
2021/09/25 04:31:25;;;;;;;5.13;4.73;;;17.80;99.90;;;;;;5048819;28;20533;-50
2021/09/25 04:33:51;;;;;;;5.43;5.03;;;17.80;99.90;;;;;;5048632;28;20467;-50
2021/09/25 04:36:17;;;;;;;5.10;4.70;;;17.80;99.90;;;;;;5048442;28;20412;-51
2021/09/25 04:38:42;;;;;;;5.40;4.90;;;17.80;99.90;;;;;;5047705;28;20180;-50
2021/09/25 04:41:08;;;;;;;5.27;4.77;;;17.90;99.90;;;;;;5048743;28;20654;-47
2021/09/25 04:43:34;;;;;;;5.73;5.23;;;17.80;99.90;;;;;;5062293;28;20827;-50
2021/09/25 04:46:00;;;;;;;5.90;5.40;;;17.80;99.90;;;;;;5072326;28;20182;-50
2021/09/25 04:48:25;;;;;;;5.50;5.10;;;17.80;99.90;;;;;;5072299;28;20179;-50
2021/09/25 04:50:51;;;;;;;5.00;4.60;;;17.70;99.90;;;;;;5072225;28;20606;-52
2021/09/25 04:53:17;;;;;;;5.93;5.33;;;17.70;99.90;;;;;;5072151;28;20691;-51
2021/09/25 04:55:44;;;;;;;5.63;5.13;;;17.70;99.90;;;;;;5070784;28;20179;-52
2021/09/25 04:58:11;;;;;;;5.80;5.30;;;17.70;99.90;;;;;;5072016;28;21118;-51
2021/09/25 05:00:37;;;;;;;5.73;5.23;;;17.70;99.90;;;;;;5072155;28;20446;-48
2021/09/25 05:03:04;;;;;;;5.70;5.20;;;17.60;99.90;;;;;;5072157;28;20499;-49
2021/09/25 05:05:30;;;;;;;5.53;5.07;;;17.60;99.90;;;;;;5071717;28;20402;-53
2021/09/25 05:07:55;;;;;;;5.23;4.83;;;17.70;99.90;;;;;;5071913;28;20851;-52
2021/09/25 05:10:21;;;;;;;7.20;5.30;;;17.60;99.90;;;;;;5072023;28;20413;-49
2021/09/25 05:12:46;;;;;;;6.93;5.17;;;17.60;99.90;;;;;;5071713;28;20219;-53
2021/09/25 05:15:13;;;;;;;5.27;4.87;;;17.60;99.90;;;;;;5070649;28;20208;-53
2021/09/25 05:17:39;;;;;;;4.83;4.53;;;17.60;99.90;;;;;;5072287;28;20229;-51
2021/09/25 05:20:06;;;;;;;5.20;4.80;;;17.50;99.90;;;;;;5084359;28;20417;-50
2021/09/25 05:22:32;;;;;;;5.67;5.27;;;17.50;99.90;;;;;;5091355;28;20506;-51
2021/09/25 05:24:58;;;;;;;5.63;5.20;;;17.50;99.90;;;;;;5088871;28;20504;-52
2021/09/25 05:27:24;;;;;;;5.40;4.80;;;17.40;99.90;;;;;;5085305;28;20521;-48
2021/09/25 05:29:49;;;;;;;6.13;5.63;;;17.40;99.90;;;;;;5091595;28;20707;-57
2021/09/25 05:32:15;;;;;;;5.67;5.07;;;17.50;99.90;;;;;;5091349;28;20277;-54
2021/09/25 05:34:42;;;;;;;5.90;5.40;;;17.50;99.90;;;;;;5088675;28;20276;-55
2021/09/25 05:37:08;;;;;;;5.73;5.23;;;17.40;99.90;;;;;;5091464;28;20664;-49
2021/09/25 05:39:34;;;;;;;6.10;5.60;;;17.50;99.90;;;;;;5090366;28;20432;-49
2021/09/25 05:41:59;;;;;;;5.60;5.10;;;17.60;99.90;;;;;;5091387;28;20775;-51
2021/09/25 05:44:25;;;;;;;5.90;5.40;;;17.60;99.90;;;;;;5087346;28;20231;-51
2021/09/25 05:46:52;;;;;;;5.57;5.07;;;17.60;99.90;;;;;;5088950;28;20213;-51
2021/09/25 05:49:17;;;;;;;6.77;5.33;;;17.70;99.90;;;;;;5090802;28;20428;-53
2021/09/25 05:51:43;;;;;;;6.37;5.40;;;17.80;99.90;;;;;;5050874;28;20194;-49
2021/09/25 05:54:08;;;;;;;5.87;5.37;;;17.80;99.90;;;;;;5050927;28;20854;-52
2021/09/25 05:56:34;;;;;;;5.50;5.10;;;17.90;99.90;;;;;;5054854;28;20192;-52
2021/09/25 05:59:00;;;;;;;6.23;4.97;;;17.90;99.90;;;;;;5069752;28;20189;-54
2021/09/25 06:01:25;;;;;;;5.77;5.37;;;18.10;99.90;;;;;;5070939;28;20245;-50
2021/09/25 06:03:51;;;;;;;5.60;5.10;;;18.00;99.90;;;;;;5069143;28;20201;-55
2021/09/25 06:06:17;;;;;;;5.70;5.20;;;18.10;99.90;;;;;;5070813;28;20595;-51
2021/09/25 06:08:42;;;;;;;5.50;4.90;;;18.20;99.90;;;;;;5070652;28;20183;-53
2021/09/25 06:11:08;;;;;;;5.67;5.27;;;18.20;99.90;;;;;;5070953;28;20692;-54
2021/09/25 06:13:33;;;;;;;7.53;5.60;;;18.30;99.90;;;;;;5070658;28;20297;-50
2021/09/25 06:15:59;;;;;;;7.30;6.80;;;18.30;99.90;;;;;;5070548;28;20569;-52
2021/09/25 06:18:24;;;;;;;6.50;6.00;;;18.30;99.90;;;;;;5050740;28;20524;-50
2021/09/25 06:20:50;;;;;;;5.57;5.03;;;18.30;99.90;;;;;;5052973;28;20193;-52
2021/09/25 06:23:16;;;;;;;5.30;4.90;;;18.40;99.90;;;;;;5068011;28;20198;-51
2021/09/25 06:25:42;;;;;;;6.03;5.10;;;18.40;99.90;;;;;;5074378;28;20460;-48
2021/09/25 06:28:07;;;;;;;5.50;5.10;;;18.50;99.90;;;;;;5088044;28;20192;-51
2021/09/25 06:30:40;;;;;;;5.50;5.10;;;18.40;99.90;;;;;;5058989;28;21078;-51
2021/09/25 06:33:06;;;;;;;5.80;5.30;;;18.50;99.90;;;;;;5050351;28;20232;-53
2021/09/25 06:35:31;;;;;;;6.00;5.50;;;18.50;99.90;;;;;;5050107;28;20413;-54
2021/09/25 06:37:57;;;;;;;5.80;5.30;;;18.50;99.90;;;;;;5050230;28;20767;-50
2021/09/25 06:40:22;;;;;;;5.20;4.80;;;18.70;99.90;;;;;;5050200;28;20191;-52
2021/09/25 06:42:48;;;;;;;6.00;5.23;;;18.70;99.90;;;;;;5054855;28;20224;-51
2021/09/25 06:45:14;;;;;;;5.87;4.97;;;18.70;99.90;;;;;;5070297;28;20168;-47
2021/09/25 06:47:39;;;;;;;5.30;4.90;;;18.70;99.90;;;;;;5070024;28;20193;-52
2021/09/25 06:50:05;;;;;;;6.10;5.57;;;18.70;99.90;;;;;;5069827;28;20216;-49
2021/09/25 06:52:31;;;;;;;5.77;5.27;;;18.70;99.90;;;;;;5068406;28;20209;-52
2021/09/25 06:54:57;;;;;;;5.40;4.90;;;18.80;99.90;;;;;;5069911;28;20415;-56
2021/09/25 06:57:22;;;;;;;5.90;5.40;;;18.90;99.90;;;;;;5069628;28;20525;-56
2021/09/25 06:59:48;;;;;;;5.37;4.97;;;19.00;99.90;;;;;;5069781;28;20396;-52
2021/09/25 07:02:13;;;;;;;5.23;4.87;;;19.10;99.90;;;;;;5069673;28;20193;-52
2021/09/25 07:04:39;;;;;;;6.40;5.90;;;19.20;99.90;;;;;;5069536;28;20260;-53
2021/09/25 07:07:04;;;;;;;6.20;5.70;;;19.40;99.90;;;;;;5069449;28;20585;-52
2021/09/25 07:09:30;;;;;;;5.90;5.57;;;19.50;99.90;;;;;;5069705;28;20182;-54
2021/09/25 07:11:56;;;;;;;5.27;4.87;;;19.60;99.90;;;;;;5069474;28;20188;-48
2021/09/25 07:14:21;;;;;;;5.80;5.30;;;19.70;99.90;;;;;;5069575;28;20267;-49
2021/09/25 07:16:47;;;;;;;5.33;4.93;;;19.80;99.90;;;;;;5069770;28;20162;-51
2021/09/25 07:19:12;;;;;;;6.30;5.80;;;20.00;99.90;;;;;;5069914;28;20241;-56
2021/09/25 07:21:38;;;;;;;6.43;5.93;;;20.00;99.90;;;;;;5058556;28;20201;-48
2021/09/25 07:24:04;;;;;;;5.70;5.30;;;20.20;99.90;;;;;;5078885;28;20683;-55
2021/09/25 07:26:29;;;;;;;6.30;5.70;;;20.40;99.90;;;;;;5089246;28;20192;-49
2021/09/25 07:28:55;;;;;;;6.60;6.10;;;20.50;99.90;;;;;;5088508;28;20180;-52
2021/09/25 07:31:21;;;;;;;5.37;4.97;;;20.60;99.90;;;;;;5085838;28;20785;-57
2021/09/25 07:33:46;;;;;;;7.53;5.40;;;20.70;99.90;;;;;;5087336;28;20201;-52
2021/09/25 07:36:12;;;;;;;6.00;5.60;;;20.70;99.90;;;;;;5087068;28;20418;-53
2021/09/25 07:38:38;;;;;;;5.23;4.83;;;20.90;99.90;;;;;;5087857;28;20185;-47
2021/09/25 07:41:04;;;;;;;5.57;5.17;;;21.00;99.90;;;;;;5088937;28;20646;-56
2021/09/25 07:43:29;;;;;;;5.87;5.47;;;21.00;99.90;;;;;;5078539;28;20233;-56
2021/09/25 07:45:56;;;;;;;5.77;5.40;;;21.00;99.90;;;;;;5087754;28;20189;-49
2021/09/25 07:48:22;;;;;;;6.33;5.80;;;21.20;99.90;;;;;;5086803;28;20427;-53
2021/09/25 07:50:48;;;;;;;6.50;5.90;;;21.20;99.90;;;;;;5089179;28;20905;-49
2021/09/25 07:53:14;;;;;;;6.40;5.90;;;21.30;99.90;;;;;;5089280;28;20470;-53
2021/09/25 07:55:40;;;;;;;5.50;5.10;;;21.20;99.90;;;;;;5089284;28;20173;-57
2021/09/25 07:58:05;;;;;;;6.70;5.23;;;21.10;99.80;;;;;;5076534;28;20488;-49
2021/09/25 08:00:31;;;;;;;5.47;5.10;;;21.00;99.90;;;;;;5067819;28;20554;-49
2021/09/25 08:02:57;;;;;;;6.20;5.70;;;21.00;99.90;;;;;;5068198;28;20181;-50
2021/09/25 08:05:22;;;;;;;5.27;4.87;;;20.90;99.90;;;;;;5069009;28;20418;-52
2021/09/25 08:07:48;;;;;;;5.77;5.37;;;20.70;99.90;;;;;;5068907;28;20243;-54
2021/09/25 08:10:15;;;;;;;6.37;5.77;;;20.60;99.90;;;;;;5069082;28;20186;-52
2021/09/25 08:12:41;;;;;;;5.60;5.30;;;20.70;99.90;;;;;;5068905;28;20540;-50
2021/09/25 08:15:08;;;;;;;5.57;5.17;;;20.70;99.90;;;;;;5068833;28;20494;-51
2021/09/25 08:17:34;;;;;;;6.23;5.83;;;20.80;99.90;;;;;;5070253;28;20565;-58
2021/09/25 08:20:00;;;;;;;5.47;5.17;;;20.70;99.90;;;;;;5072232;28;20483;-54
2021/09/25 08:22:25;;;;;;;5.33;4.93;;;20.90;99.90;;;;;;5066039;28;20261;-54
2021/09/25 08:24:51;;;;;;;5.83;5.43;;;21.00;99.90;;;;;;5075597;28;20209;-53
2021/09/25 08:27:16;;;;;;;5.60;5.20;;;21.00;99.90;;;;;;5072498;28;20185;-51
2021/09/25 08:29:42;;;;;;;6.37;5.97;;;21.00;99.90;;;;;;5072256;28;20182;-49
2021/09/25 08:32:08;;;;;;;5.60;5.20;;;21.00;99.90;;;;;;5072313;28;20190;-58
2021/09/25 08:34:34;;;;;;;6.27;5.77;;;21.20;99.90;;;;;;5083708;28;20204;-48
2021/09/25 08:36:59;;;;;;;5.83;5.43;;;21.30;99.70;;;;;;5089785;28;20180;-52
2021/09/25 08:39:25;;;;;;;6.00;5.60;;;21.30;99.80;;;;;;5090280;28;20441;-50
2021/09/25 08:41:54;;;;;;;6.00;5.60;;;21.40;99.00;;;;;;5092353;28;20305;-55
2021/09/25 08:44:22;;;;;;;6.50;5.90;;;21.50;98.90;;;;;;5083215;28;20626;-52
2021/09/25 08:46:48;;;;;;;6.50;6.00;;;21.50;99.20;;;;;;5091286;28;20427;-53
2021/09/25 08:49:13;;;;;;;6.17;5.77;;;21.40;99.10;;;;;;5093984;28;20423;-51
2021/09/25 08:51:39;;;;;;;6.33;5.90;;;21.40;98.90;;;;;;5091305;28;20587;-50
2021/09/25 08:54:05;;;;;;;5.83;5.43;;;21.60;98.80;;;;;;5091257;28;20606;-51
2021/09/25 08:56:31;;;;;;;6.20;5.70;;;21.70;99.00;;;;;;5090126;28;20210;-49
2021/09/25 08:58:59;;;;;;;6.30;5.90;;;21.80;98.30;;;;;;5090913;28;20447;-51
2021/09/25 09:01:28;;;;;;;6.83;6.43;;;22.00;98.00;;;;;;5093704;28;20596;-48
2021/09/25 09:03:54;;;;;;;6.93;6.33;;;22.00;97.30;;;;;;5093547;28;20424;-49
2021/09/25 09:06:29;;;;;;;6.50;6.00;;;22.00;97.50;;;;;;5093719;28;21076;-50
2021/09/25 09:08:58;;;;;;;6.50;6.00;;;22.10;97.40;;;;;;5092655;28;20418;-50
2021/09/25 09:11:24;;;;;;;7.10;6.50;;;22.10;97.00;;;;;;5093313;28;20427;-49
2021/09/25 09:13:53;;;;;;;6.33;5.83;;;22.20;97.30;;;;;;5089586;28;20462;-49
2021/09/25 09:16:21;;;;;;;7.43;6.83;;;22.50;96.90;;;;;;5093533;28;20416;-54
2021/09/25 09:18:49;;;;;;;6.80;6.37;;;22.70;95.70;;;;;;5092393;28;20425;-51
2021/09/25 09:21:29;;;;;;;6.43;6.03;;;22.90;95.80;;;;;;5082265;28;20435;-51
2021/09/25 09:23:55;;;;;;;6.50;6.10;;;23.20;95.50;;;;;;5090237;28;20448;-50
2021/09/25 09:26:24;;;;;;;7.70;7.07;;;23.40;94.90;;;;;;5093115;28;20436;-50
2021/09/25 09:28:51;;;;;;;7.33;6.77;;;23.70;93.60;;;;;;5091520;28;20507;-52
2021/09/25 09:31:18;;;;;;;6.73;6.23;;;24.00;94.30;;;;;;5092267;28;20419;-53
2021/09/25 09:33:50;;;;;;;6.77;6.27;;;25.00;93.30;;;;;;5092036;28;20494;-48
2021/09/25 09:36:30;;;;;;;7.97;7.37;;;26.30;90.90;;;;;;5092859;28;20485;-49
2021/09/25 09:39:10;;;;;;;7.10;6.67;;;27.40;84.20;;;;;;5090154;28;20419;-51
2021/09/25 09:41:46;;;;;;;7.17;6.77;;;27.90;75.30;;;;;;5092908;28;20440;-54
2021/09/25 09:44:18;;;;;;;6.90;6.40;;;27.60;72.00;;;;;;5083504;28;20471;-47
2021/09/25 09:46:58;;;;;;;6.80;6.30;;;27.60;72.90;;;;;;5092613;28;20454;-49
2021/09/25 09:49:32;;;;;;;7.47;6.97;;;27.80;72.40;;;;;;5091039;28;20430;-48
2021/09/25 09:52:06;;;;;;;6.80;6.30;;;28.30;69.20;;;;;;5091010;28;20411;-54
2021/09/25 09:54:37;;;;;;;7.30;6.73;;;29.00;66.60;;;;;;5090826;28;20463;-57
2021/09/25 09:57:22;;;;;;;6.50;6.10;;;29.60;62.20;;;;;;5089642;28;20412;-49
2021/09/25 09:59:50;;;;;;;7.03;6.63;;;29.60;62.40;;;;;;5089475;28;20424;-58
2021/09/25 10:02:16;;;;;;;6.20;5.90;;;29.90;59.90;;;;;;5090882;28;20867;-48
2021/09/25 10:04:43;;;;;;;7.43;6.93;;;30.10;59.40;;;;;;5089371;28;20430;-52
2021/09/25 10:07:09;;;;;;;6.77;6.37;;;29.80;57.20;;;;;;5090884;28;20422;-50
2021/09/25 10:09:37;;;;;;;6.90;6.50;;;29.90;57.70;;;;;;5090840;28;20422;-52
2021/09/25 10:12:14;;;;;;;7.23;6.83;;;29.90;57.30;;;;;;5088035;28;20414;-49
2021/09/25 10:14:42;;;;;;;6.80;6.40;;;29.80;55.70;;;;;;5090178;28;20479;-57
2021/09/25 10:17:10;;;;;;;6.67;6.30;;;29.90;56.70;;;;;;5090810;28;20419;-50
2021/09/25 10:19:37;;;;;;;6.67;6.27;;;30.10;56.90;;;;;;5090322;28;20786;-51
2021/09/25 10:22:21;;;;;;;6.73;6.33;;;30.10;54.60;;;;;;5072632;28;20427;-50
2021/09/25 10:24:56;;;;;;;6.67;6.27;;;30.50;53.70;;;;;;5082621;28;20880;-56
2021/09/25 10:27:32;;;;;;;6.70;6.30;;;30.10;52.50;;;;;;5090491;28;20421;-51
2021/09/25 10:30:00;;;;;;;6.80;6.40;;;30.10;54.10;;;;;;5087114;28;20419;-50
2021/09/25 10:32:28;;;;;;;7.33;6.93;;;29.80;53.30;;;;;;5090491;28;20421;-51
2021/09/25 10:35:03;;;;;;;6.53;6.13;;;29.70;53.40;;;;;;5090141;28;20465;-50
2021/09/25 10:38:01;;;;;;;7.30;6.90;;;29.30;54.60;;;;;;5088428;28;20430;-50
2021/09/25 10:40:35;;;;;;;6.83;6.43;;;29.10;54.90;;;;;;5089129;28;21201;-51
2021/09/25 10:43:04;;;;;;;7.10;6.70;;;29.00;55.10;;;;;;5083392;28;21113;-47
2021/09/25 10:45:38;;;;;;;7.00;6.60;;;28.10;57.60;;;;;;5086869;28;20430;-50
2021/09/25 10:48:09;;;;;;;6.60;6.20;;;28.30;58.00;;;;;;5088746;28;20439;-50
2021/09/25 10:50:47;;;;;;;6.50;5.90;;;28.50;56.90;;;;;;5053667;28;20830;-51
2021/09/25 10:53:24;;;;;;;6.30;5.93;;;28.40;56.40;;;;;;5049861;28;20789;-53
2021/09/25 10:55:55;;;;;;;6.23;5.80;;;28.70;56.70;;;;;;5049835;28;20441;-52
2021/09/25 10:58:26;;;;;;;7.20;6.80;;;29.10;56.20;;;;;;5068570;28;20416;-52
2021/09/25 11:00:56;;;;;;;7.70;7.20;;;29.20;54.70;;;;;;5069547;28;20393;-51
2021/09/25 11:03:43;;;;;;;6.17;5.77;;;29.20;53.60;;;;;;5069781;28;20503;-50
2021/09/25 11:06:26;;;;;;;7.17;6.77;;;28.90;56.20;;;;;;5069619;28;20763;-49
2021/09/25 11:08:51;;;;;;;6.80;6.40;;;28.90;55.40;;;;;;5069731;28;20409;-52
2021/09/25 11:11:19;;;;;;;6.63;6.23;;;28.90;55.80;;;;;;5069753;28;20415;-51
2021/09/25 11:14:05;;;;;;;6.43;6.10;;;28.90;56.10;;;;;;5069459;28;20204;-57
2021/09/25 11:17:01;;;;;;;6.53;6.13;;;29.00;55.90;;;;;;5069916;28;21120;-53
2021/09/25 11:19:28;;;;;;;6.60;6.30;;;29.00;55.80;;;;;;5069478;28;20404;-53
2021/09/25 11:21:59;;;;;;;6.63;6.23;;;28.70;56.40;;;;;;5055043;28;20405;-48
2021/09/25 11:24:26;;;;;;;6.57;6.07;;;29.00;56.30;;;;;;5051865;28;20416;-54
2021/09/25 11:26:52;;;;;;;6.20;5.90;;;29.40;55.20;;;;;;5065157;28;20920;-52
2021/09/25 11:29:17;;;;;;;6.97;6.47;;;29.90;54.60;;;;;;5072941;28;20431;-52
2021/09/25 11:31:48;;;;;;;6.17;5.87;;;30.10;51.70;;;;;;5069158;28;20269;-48
2021/09/25 11:34:24;;;;;;;5.97;5.67;;;29.80;52.20;;;;;;5086809;28;20200;-53
2021/09/25 11:36:51;;;;;;;6.67;6.37;;;29.90;52.50;;;;;;5086826;28;20486;-53
2021/09/25 11:39:33;;;;;;;5.90;5.60;;;30.10;52.10;;;;;;5088468;28;20854;-49
2021/09/25 11:42:19;;;;;;;5.80;5.50;;;30.00;53.50;;;;;;5088229;28;20478;-52
2021/09/25 11:44:47;;;;;;;6.10;5.80;;;30.10;52.40;;;;;;5053717;28;20565;-53
2021/09/25 11:47:32;;;;;;;5.37;5.07;;;29.80;53.20;;;;;;5068843;28;20412;-52
2021/09/25 11:50:02;;;;;;;6.70;6.30;;;29.70;49.90;;;;;;5069067;28;20962;-52
2021/09/25 11:52:28;;;;;;;7.00;6.30;;;29.30;51.60;;;;;;5086416;28;20411;-52
2021/09/25 11:54:54;;;;;;;6.63;6.23;;;29.30;52.70;;;;;;5093340;28;20813;-52
2021/09/25 11:57:22;;;;;;;6.50;6.00;;;29.30;53.80;;;;;;5083905;28;20408;-51
2021/09/25 11:59:49;;;;;;;6.30;6.00;;;29.40;53.10;;;;;;5078464;28;20412;-50
2021/09/25 12:02:41;;;;;;;5.83;5.53;;;29.40;53.90;;;;;;5052773;28;20411;-53
2021/09/25 12:05:26;;;;;;;6.20;5.90;;;29.20;53.80;;;;;;5053096;28;20432;-52
2021/09/25 12:07:53;;;;;;;6.53;6.13;;;28.90;54.40;;;;;;5052978;28;20393;-57
2021/09/25 12:10:23;;;;;;;6.87;6.50;;;28.50;55.00;;;;;;5052970;28;20481;-50
2021/09/25 12:12:57;;;;;;;6.40;6.00;;;28.20;57.20;;;;;;5052874;28;21027;-51
2021/09/25 12:15:29;;;;;;;6.67;6.37;;;28.00;56.60;;;;;;5052883;28;20453;-50
2021/09/25 12:18:12;;;;;;;6.10;5.80;;;28.10;55.70;;;;;;5052749;28;20435;-53
2021/09/25 12:20:39;;;;;;;5.33;5.13;;;28.10;56.40;;;;;;5052908;28;20458;-53
2021/09/25 12:23:06;;;;;;;6.10;5.70;;;27.70;55.40;;;;;;5052458;28;20419;-50
2021/09/25 12:25:38;;;;;;;5.87;5.57;;;27.20;56.50;;;;;;5060308;28;20950;-49
2021/09/25 12:28:47;;;;;;;5.60;5.30;;;27.00;58.70;;;;;;5069457;28;20405;-48
2021/09/25 12:31:27;;;;;;;5.33;5.03;;;27.00;58.10;;;;;;5091600;28;20532;-53
2021/09/25 12:33:56;;;;;;;5.70;5.40;;;26.90;58.70;;;;;;5091659;28;20461;-53
2021/09/25 12:36:26;;;;;;;5.47;5.17;;;26.90;58.90;;;;;;5092386;28;20415;-57
2021/09/25 12:38:54;;;;;;;5.40;5.00;;;26.70;59.40;;;;;;5091757;28;20467;-58
2021/09/25 12:41:22;;;;;;;5.77;5.37;;;26.50;61.60;;;;;;5092069;28;20424;-50
2021/09/25 12:43:54;;;;;;;5.00;4.70;;;26.60;60.50;;;;;;5065847;28;20549;-51
2021/09/25 12:46:25;;;;;;;4.97;4.70;;;26.30;59.90;;;;;;5072324;28;20403;-50
2021/09/25 12:49:22;;;;;;;5.00;4.80;;;26.10;61.90;;;;;;5072048;28;20924;-51